Time;durP1;ratioP1;P1;durP2;ratioP2;P2;SDS_P1;SDS_P2;PMS_P1;PMS_P2;Temp;Humidity;BMP_temperature;BMP_pressure;BME280_temperature;BME280_humidity;BME280_pressure;Samples;Min_cycle;Max_cycle;Signal;HPM_P1;HPM_P2
2021/11/13 00:00:50;;;;;;;25.17;14.75;;;;;;;;;;5035319;28;20159;-64
2021/11/13 00:03:22;;;;;;;24.08;13.38;;;;;;;;;;5035391;28;20029;-65
2021/11/13 00:06:14;;;;;;;25.13;13.40;;;;;;;;;;5035615;28;20041;-63
2021/11/13 00:08:51;;;;;;;30.58;13.90;;;;;;;;;;5034920;28;20033;-65
2021/11/13 00:11:22;;;;;;;25.88;14.35;;;;;;;;;;5053298;28;20036;-65
2021/11/13 00:13:53;;;;;;;25.50;14.20;;;;;;;;;;5034148;28;20079;-65
2021/11/13 00:16:24;;;;;;;24.75;14.27;;;;;;;;;;5035310;28;20610;-65
2021/11/13 00:18:53;;;;;;;25.15;13.70;;;;;;;;;;5034684;28;20037;-65
2021/11/13 00:21:30;;;;;;;24.23;13.48;;;;;;;;;;5035278;28;20124;-65
2021/11/13 00:24:25;;;;;;;;;;;;;;;;;;;;;
2021/11/13 00:29:49;;;;;;;24.63;12.95;;;;;;;;;;5037422;28;20029;-65
2021/11/13 00:32:15;;;;;;;25.35;13.50;;;;;;;;;;5034655;28;20390;-65
2021/11/13 00:34:41;;;;;;;24.65;13.50;;;;;;;;;;5034531;28;20088;-66
2021/11/13 00:37:30;;;;;;;;;;;;;;;;;;;;;
2021/11/13 00:39:56;;;;;;;26.55;12.35;;;;;;;;;;5052329;28;20424;-65
2021/11/13 00:48:37;;;;;;;25.23;12.15;;;;;;;;;;5041708;28;20505;-65
2021/11/13 00:51:29;;;;;;;24.52;12.90;;;;;;;;;;5034341;28;20025;-65
2021/11/13 00:54:08;;;;;;;23.13;12.25;;;;;;;;;;5033764;28;20048;-65
2021/11/13 00:56:42;;;;;;;24.73;12.95;;;;;;;;;;5034334;28;20017;-65
2021/11/13 00:59:09;;;;;;;24.48;12.02;;;;;;;;;;5034119;28;20397;-65
2021/11/13 01:01:37;;;;;;;24.98;12.18;;;;;;;;;;5034325;28;20075;-65
2021/11/13 01:04:09;;;;;;;25.30;12.95;;;;;;;;;;5033923;28;20056;-64
2021/11/13 01:06:41;;;;;;;24.35;12.27;;;;;;;;;;5033951;28;20060;-65
2021/11/13 01:09:15;;;;;;;27.73;13.52;;;;;;;;;;5033926;28;20033;-65
2021/11/13 01:11:41;;;;;;;23.42;12.35;;;;;;;;;;5034003;28;20078;-64
2021/11/13 01:14:22;;;;;;;24.73;13.32;;;;;;;;;;5033805;28;20070;-65
2021/11/13 01:16:53;;;;;;;22.60;10.75;;;;;;;;;;5032939;28;20119;-65
2021/11/13 01:19:24;;;;;;;22.95;11.57;;;;;;;;;;5033911;28;20102;-65
2021/11/13 01:21:56;;;;;;;23.10;11.75;;;;;;;;;;5034357;28;20032;-64
2021/11/13 01:24:28;;;;;;;24.55;12.80;;;;;;;;;;5034166;28;20025;-65
2021/11/13 01:29:46;;;;;;;22.17;11.45;;;;;;;;;;5013937;28;20021;-65
2021/11/13 01:32:20;;;;;;;23.17;9.82;;;;;;;;;;5033914;28;20028;-65
2021/11/13 01:34:52;;;;;;;21.63;11.50;;;;;;;;;;5033638;28;20025;-65
2021/11/13 01:37:26;;;;;;;25.55;12.68;;;;;;;;;;5030991;28;20048;-65
2021/11/13 01:40:00;;;;;;;24.52;12.80;;;;;;;;;;5033433;28;20029;-65
2021/11/13 01:42:31;;;;;;;23.30;11.43;;;;;;;;;;5033374;28;20052;-65
2021/11/13 01:48:13;;;;;;;23.42;10.60;;;;;;;;;;5051321;28;20037;-65
2021/11/13 01:54:06;;;;;;;22.00;11.13;;;;;;;;;;5006583;28;20021;-66
2021/11/13 01:56:57;;;;;;;21.90;10.73;;;;;;;;;;5033769;28;20041;-65
2021/11/13 01:59:31;;;;;;;26.38;11.95;;;;;;;;;;4973892;28;20034;-65
2021/11/13 02:02:33;;;;;;;22.77;11.55;;;;;;;;;;4969669;28;20046;-65
2021/11/13 02:05:23;;;;;;;23.98;11.75;;;;;;;;;;4984166;28;20036;-65
2021/11/13 02:07:51;;;;;;;24.73;11.88;;;;;;;;;;4989556;28;20184;-65
2021/11/13 02:10:37;;;;;;;18.85;8.80;;;;;;;;;;4973625;28;20034;-65
2021/11/13 02:13:23;;;;;;;23.80;11.30;;;;;;;;;;4988919;28;20034;-65
2021/11/13 02:16:03;;;;;;;23.88;11.68;;;;;;;;;;4975353;28;20026;-64
2021/11/13 02:27:25;;;;;;;22.30;10.68;;;;;;;;;;5050915;28;20106;-63
2021/11/13 02:30:05;;;;;;;22.58;11.35;;;;;;;;;;5033048;28;20039;-65
2021/11/13 02:32:32;;;;;;;21.55;10.88;;;;;;;;;;5033073;28;20529;-66
2021/11/13 02:39:03;;;;;;;24.25;12.32;;;;;;;;;;4979527;28;20026;-66
2021/11/13 02:41:55;;;;;;;22.50;10.93;;;;;;;;;;5011347;28;20048;-65
2021/11/13 02:44:27;;;;;;;23.42;10.95;;;;;;;;;;5033523;28;20025;-65
2021/11/13 02:46:58;;;;;;;26.67;12.15;;;;;;;;;;5032291;28;20092;-65
2021/11/13 02:49:33;;;;;;;23.70;12.00;;;;;;;;;;5032994;28;20252;-65
2021/11/13 02:52:26;;;;;;;23.80;11.98;;;;;;;;;;5033424;28;20103;-65
2021/11/13 02:55:13;;;;;;;21.58;10.38;;;;;;;;;;5034081;28;20028;-65
2021/11/13 02:57:48;;;;;;;22.25;11.43;;;;;;;;;;5036677;28;20086;-65
2021/11/13 03:03:54;;;;;;;22.65;10.45;;;;;;;;;;5037496;28;20040;-65
2021/11/13 03:06:35;;;;;;;23.52;10.40;;;;;;;;;;5035800;28;20032;-65
2021/11/13 03:09:19;;;;;;;22.30;10.80;;;;;;;;;;5036496;28;20116;-65
2021/11/13 03:12:14;;;;;;;25.42;11.52;;;;;;;;;;5036296;28;20028;-65
2021/11/13 03:14:54;;;;;;;26.92;11.77;;;;;;;;;;5030880;28;20401;-65
2021/11/13 03:17:28;;;;;;;23.67;12.45;;;;;;;;;;5033998;28;20028;-65
2021/11/13 03:20:03;;;;;;;28.08;13.38;;;;;;;;;;5036099;28;20024;-65
2021/11/13 03:22:33;;;;;;;25.70;12.07;;;;;;;;;;5035202;28;20041;-65
2021/11/13 03:25:27;;;;;;;25.90;12.82;;;;;;;;;;5035179;28;20106;-65
2021/11/13 03:28:08;;;;;;;23.85;12.35;;;;;;;;;;5030888;28;20041;-65
2021/11/13 03:30:46;;;;;;;35.05;14.23;;;;;;;;;;5035869;28;20494;-65
2021/11/13 03:33:20;;;;;;;26.13;12.63;;;;;;;;;;5035817;28;20032;-65
2021/11/13 03:36:00;;;;;;;26.30;13.18;;;;;;;;;;5035439;28;20073;-65
2021/11/13 03:38:35;;;;;;;27.10;13.18;;;;;;;;;;5035740;28;20029;-65
2021/11/13 03:41:05;;;;;;;27.75;13.70;;;;;;;;;;5036044;28;20080;-65
2021/11/13 03:46:38;;;;;;;24.75;13.07;;;;;;;;;;5053350;28;20029;-66
2021/11/13 03:49:16;;;;;;;26.15;13.10;;;;;;;;;;5052240;28;20025;-65
2021/11/13 03:51:50;;;;;;;26.25;13.40;;;;;;;;;;5052434;28;20037;-65
2021/11/13 03:57:22;;;;;;;29.95;12.82;;;;;;;;;;5046173;28;20029;-65
2021/11/13 04:02:46;;;;;;;26.67;13.05;;;;;;;;;;5012630;28;20079;-65
2021/11/13 04:08:07;;;;;;;32.30;14.95;;;;;;;;;;5012428;28;20413;-65
2021/11/13 04:10:56;;;;;;;28.58;13.15;;;;;;;;;;5034391;28;20037;-65
2021/11/13 04:13:27;;;;;;;28.60;13.93;;;;;;;;;;5030169;28;20132;-65
2021/11/13 04:16:05;;;;;;;30.40;14.30;;;;;;;;;;5035160;28;20043;-65
2021/11/13 04:21:32;;;;;;;30.88;15.93;;;;;;;;;;5053364;28;20040;-65
2021/11/13 04:24:27;;;;;;;30.48;16.05;;;;;;;;;;5035203;28;20029;-65
2021/11/13 04:27:05;;;;;;;30.02;15.25;;;;;;;;;;5013543;28;20079;-65
2021/11/13 04:29:43;;;;;;;29.08;15.73;;;;;;;;;;5034874;28;20033;-65
2021/11/13 04:32:16;;;;;;;29.63;16.13;;;;;;;;;;5034548;28;20064;-64
2021/11/13 04:35:14;;;;;;;32.70;16.58;;;;;;;;;;5034139;28;20029;-65
2021/11/13 04:37:35;;;;;;;30.40;15.05;;;;;;;;;;5051744;28;20036;-65
2021/11/13 04:40:35;;;;;;;;;;;;;;;;;;;;;
2021/11/13 04:43:00;;;;;;;31.08;16.20;;;;;;;;;;5051037;28;20105;-66
2021/11/13 04:45:33;;;;;;;34.47;16.10;;;;;;;;;;5033532;28;20029;-65
2021/11/13 04:48:05;;;;;;;32.47;16.13;;;;;;;;;;5032829;28;20048;-65
2021/11/13 04:50:57;;;;;;;31.17;16.23;;;;;;;;;;5034945;28;20101;-66
2021/11/13 04:53:23;;;;;;;31.45;16.67;;;;;;;;;;5051942;28;20485;-64
2021/11/13 04:55:56;;;;;;;29.48;15.88;;;;;;;;;;5034822;28;20025;-65
2021/11/13 04:58:33;;;;;;;29.95;14.98;;;;;;;;;;5035086;28;20119;-65
2021/11/13 05:01:01;;;;;;;31.92;16.67;;;;;;;;;;5031614;28;20402;-65
2021/11/13 05:03:33;;;;;;;30.77;15.90;;;;;;;;;;5034332;28;20488;-65
2021/11/13 05:06:19;;;;;;;38.35;17.48;;;;;;;;;;5034377;28;20064;-65
2021/11/13 05:09:03;;;;;;;31.70;17.17;;;;;;;;;;5030963;28;20022;-65
2021/11/13 05:11:31;;;;;;;30.20;15.27;;;;;;;;;;5014826;28;20575;-67
2021/11/13 05:14:03;;;;;;;35.95;21.05;;;;;;;;;;5031016;28;20029;-66
2021/11/13 05:16:42;;;;;;;34.15;21.13;;;;;;;;;;5041623;28;20029;-66
2021/11/13 05:19:29;;;;;;;33.75;21.00;;;;;;;;;;5050838;28;20112;-66
2021/11/13 05:22:17;;;;;;;35.28;21.08;;;;;;;;;;5050859;28;20051;-66
2021/11/13 05:24:52;;;;;;;34.78;20.17;;;;;;;;;;5033905;28;20085;-66
2021/11/13 05:27:27;;;;;;;34.38;21.02;;;;;;;;;;5034020;28;20120;-65
2021/11/13 05:29:58;;;;;;;34.22;21.13;;;;;;;;;;5034013;28;20111;-66
2021/11/13 05:32:30;;;;;;;35.20;21.23;;;;;;;;;;5034037;28;20517;-67
2021/11/13 05:35:28;;;;;;;;;;;;;;;;;;;;;
2021/11/13 05:37:54;;;;;;;33.95;20.35;;;;;;;;;;5057618;22;20048;-66
2021/11/13 05:40:34;;;;;;;33.55;21.30;;;;;;;;;;5029135;28;20040;-66
2021/11/13 05:43:24;;;;;;;39.53;20.90;;;;;;;;;;5029211;28;20091;-66
2021/11/13 05:46:21;;;;;;;32.90;21.77;;;;;;;;;;5028774;28;20025;-66
2021/11/13 05:48:58;;;;;;;39.10;22.10;;;;;;;;;;4992847;28;20034;-66
2021/11/13 05:51:36;;;;;;;35.70;22.02;;;;;;;;;;4990299;28;20414;-66
2021/11/13 05:54:34;;;;;;;35.63;21.67;;;;;;;;;;4974988;28;20061;-66
2021/11/13 06:00:09;;;;;;;34.53;20.70;;;;;;;;;;4968826;28;20046;-66
2021/11/13 06:02:54;;;;;;;35.10;21.73;;;;;;;;;;4953211;28;20085;-66
2021/11/13 06:05:42;;;;;;;;;;;;;;;;;;;;;
2021/11/13 06:08:44;;;;;;;37.58;23.48;;;;;;;;;;5009915;28;20473;-66
2021/11/13 06:11:27;;;;;;;36.03;21.30;;;;;;;;;;5008166;28;20546;-66
2021/11/13 06:14:13;;;;;;;36.05;21.05;;;;;;;;;;5009883;28;20118;-66
2021/11/13 06:16:39;;;;;;;36.63;19.65;;;;;;;;;;4986154;28;20033;-66
2021/11/13 06:19:56;;;;;;;35.40;19.60;;;;;;;;;;4992857;28;20169;-66
2021/11/13 06:22:49;;;;;;;37.05;21.02;;;;;;;;;;5008136;28;20026;-66
2021/11/13 06:25:24;;;;;;;39.83;19.98;;;;;;;;;;4988766;28;20505;-66
2021/11/13 06:27:56;;;;;;;34.45;18.50;;;;;;;;;;4995534;28;20442;-66
2021/11/13 06:30:28;;;;;;;29.50;17.08;;;;;;;;;;4996078;28;20069;-66
2021/11/13 06:33:12;;;;;;;32.67;18.15;;;;;;;;;;4996630;28;20108;-66
2021/11/13 06:38:53;;;;;;;34.60;18.67;;;;;;;;;;4983858;28;20117;-66
2021/11/13 06:41:30;;;;;;;29.80;17.35;;;;;;;;;;4993241;28;20057;-66
2021/11/13 06:44:27;;;;;;;33.38;18.40;;;;;;;;;;4995239;28;20030;-66
2021/11/13 06:46:54;;;;;;;31.88;16.67;;;;;;;;;;4987021;28;20067;-66
2021/11/13 06:49:43;;;;;;;31.58;18.67;;;;;;;;;;4995942;28;20121;-66
2021/11/13 06:52:14;;;;;;;30.20;18.27;;;;;;;;;;5013689;28;20017;-66
2021/11/13 06:58:08;;;;;;;30.73;15.98;;;;;;;;;;4972064;28;20101;-66
2021/11/13 07:00:36;;;;;;;30.85;17.40;;;;;;;;;;4956288;28;20022;-66
2021/11/13 07:03:03;;;;;;;30.52;18.27;;;;;;;;;;4981367;28;20045;-66
2021/11/13 07:05:34;;;;;;;29.30;17.77;;;;;;;;;;4996425;28;20121;-66
2021/11/13 07:08:00;;;;;;;30.65;18.63;;;;;;;;;;4995494;28;20033;-66
2021/11/13 07:10:42;;;;;;;34.17;20.40;;;;;;;;;;4995981;28;20042;-67
2021/11/13 07:13:11;;;;;;;33.85;25.63;;;;;;;;;;4991533;28;20054;-66
2021/11/13 07:15:53;;;;;;;;;;;;;;;;;;;;;
2021/11/13 07:18:29;;;;;;;36.60;25.90;;;;;;;;;;5013042;28;20072;-66
2021/11/13 07:21:01;;;;;;;36.15;24.63;;;;;;;;;;4995676;28;20018;-66
2021/11/13 07:23:37;;;;;;;32.80;26.05;;;;;;;;;;4995301;28;20041;-65
2021/11/13 07:26:12;;;;;;;38.10;25.65;;;;;;;;;;4991557;28;20501;-66
2021/11/13 07:29:03;;;;;;;35.28;27.10;;;;;;;;;;4994744;28;20076;-66
2021/11/13 07:31:35;;;;;;;39.03;26.60;;;;;;;;;;4995263;28;20036;-66
2021/11/13 07:34:19;;;;;;;41.80;28.48;;;;;;;;;;4994707;28;20030;-65
2021/11/13 07:36:59;;;;;;;37.90;25.98;;;;;;;;;;4995305;28;20048;-66
2021/11/13 07:39:29;;;;;;;34.50;25.83;;;;;;;;;;4994021;28;20512;-66
2021/11/13 07:45:20;;;;;;;39.40;26.83;;;;;;;;;;4996228;28;20498;-67
2021/11/13 07:47:55;;;;;;;39.03;25.27;;;;;;;;;;4994740;28;20042;-66
2021/11/13 07:50:27;;;;;;;35.28;24.65;;;;;;;;;;4993874;28;20023;-67
2021/11/13 07:52:53;;;;;;;32.63;24.27;;;;;;;;;;4993910;28;20018;-67
2021/11/13 07:55:27;;;;;;;36.05;25.80;;;;;;;;;;4994657;28;20029;-67
2021/11/13 07:57:59;;;;;;;32.40;23.20;;;;;;;;;;4993516;28;20034;-67
2021/11/13 08:01:00;;;;;;;35.83;23.83;;;;;;;;;;4994787;28;20029;-67
2021/11/13 08:03:43;;;;;;;28.95;22.48;;;;;;;;;;4947999;28;20058;-67
2021/11/13 08:06:28;;;;;;;35.08;24.98;;;;;;;;;;4947579;28;20042;-67
2021/11/13 08:09:06;;;;;;;32.08;22.20;;;;;;;;;;4991494;28;20053;-68
2021/11/13 08:11:44;;;;;;;36.45;25.10;;;;;;;;;;5004579;28;20090;-68
2021/11/13 08:14:12;;;;;;;35.10;25.52;;;;;;;;;;4994232;28;20045;-68
2021/11/13 08:17:09;;;;;;;33.75;23.95;;;;;;;;;;4994148;28;20041;-69
2021/11/13 08:19:40;;;;;;;30.35;22.05;;;;;;;;;;4994486;28;20061;-68
2021/11/13 08:22:15;;;;;;;32.60;21.15;;;;;;;;;;4994407;28;20030;-69
2021/11/13 08:24:54;;;;;;;31.95;22.38;;;;;;;;;;4994334;28;20054;-68
2021/11/13 08:27:20;;;;;;;30.75;22.25;;;;;;;;;;4994039;28;20438;-68
2021/11/13 08:29:52;;;;;;;28.55;21.08;;;;;;;;;;4993946;28;20466;-68
2021/11/13 08:32:21;;;;;;;29.00;20.55;;;;;;;;;;4994374;28;20049;-68
2021/11/13 08:34:46;;;;;;;;;;;;;;;;;;4994449;28;20034;-67
2021/11/13 08:37:21;;;;;;;28.63;20.05;;;;;;;;;;4993842;28;19920;-68
2021/11/13 08:39:59;;;;;;;29.30;19.83;;;;;;;;;;4993765;28;20026;-68
2021/11/13 08:42:25;;;;;;;26.50;18.60;;;;;;;;;;4993812;28;20037;-68
2021/11/13 08:44:59;;;;;;;27.02;18.95;;;;;;;;;;4993718;28;20044;-67
2021/11/13 08:47:57;;;;;;;27.45;20.60;;;;;;;;;;4992650;28;20022;-68
2021/11/13 08:50:28;;;;;;;28.67;19.27;;;;;;;;;;4992873;28;20030;-68
2021/11/13 08:52:58;;;;;;;28.13;19.10;;;;;;;;;;4991898;28;20129;-67
2021/11/13 08:55:36;;;;;;;28.58;19.08;;;;;;;;;;4992344;28;20109;-68
2021/11/13 08:58:03;;;;;;;28.13;18.63;;;;;;;;;;5011544;28;20110;-68
2021/11/13 09:00:38;;;;;;;28.98;19.67;;;;;;;;;;4993851;28;20424;-68
2021/11/13 09:03:12;;;;;;;27.80;19.17;;;;;;;;;;4994136;28;20025;-69
2021/11/13 09:05:47;;;;;;;26.15;17.25;;;;;;;;;;4993720;28;20527;-70
2021/11/13 09:08:13;;;;;;;27.88;18.05;;;;;;;;;;4993941;28;20089;-69
2021/11/13 09:10:49;;;;;;;22.65;14.68;;;;;;;;;;4993525;28;20030;-70
2021/11/13 09:16:16;;;;;;;25.08;17.52;;;;;;;;;;4992230;28;20454;-70
2021/11/13 09:18:45;;;;;;;25.83;18.08;;;;;;;;;;4993571;28;20037;-70
2021/11/13 09:21:14;;;;;;;32.42;18.02;;;;;;;;;;4993219;28;20516;-67
2021/11/13 09:23:47;;;;;;;26.33;16.92;;;;;;;;;;4993238;28;20129;-64
2021/11/13 09:26:29;;;;;;;24.23;16.17;;;;;;;;;;4992767;28;20030;-66
2021/11/13 09:29:06;;;;;;;29.48;18.45;;;;;;;;;;5010945;28;20033;-67
2021/11/13 09:31:41;;;;;;;26.70;17.80;;;;;;;;;;5011119;28;20029;-69
2021/11/13 09:34:12;;;;;;;25.13;17.17;;;;;;;;;;5010370;28;20026;-66
2021/11/13 09:36:39;;;;;;;24.35;15.85;;;;;;;;;;5010491;28;20033;-67
2021/11/13 09:39:22;;;;;;;25.20;16.65;;;;;;;;;;5010574;28;20545;-70
2021/11/13 09:41:56;;;;;;;23.60;16.40;;;;;;;;;;5010858;28;20569;-64
2021/11/13 09:44:30;;;;;;;26.70;17.20;;;;;;;;;;5010054;28;20045;-66
2021/11/13 09:46:59;;;;;;;27.65;16.08;;;;;;;;;;5010358;28;20661;-66
2021/11/13 09:49:46;;;;;;;25.10;15.63;;;;;;;;;;5011106;28;20022;-67
2021/11/13 09:52:17;;;;;;;25.17;15.88;;;;;;;;;;5010352;28;20018;-64
2021/11/13 09:55:01;;;;;;;;;;;;;;;;;;;;;
2021/11/13 09:57:38;;;;;;;27.55;17.40;;;;;;;;;;5011503;28;20120;-67
2021/11/13 10:00:26;;;;;;;24.23;17.20;;;;;;;;;;4993038;28;20378;-64
2021/11/13 10:03:18;;;;;;;25.30;16.10;;;;;;;;;;4997345;28;20022;-65
2021/11/13 10:05:51;;;;;;;26.80;17.08;;;;;;;;;;5016062;28;20034;-67
2021/11/13 10:08:43;;;;;;;25.15;16.30;;;;;;;;;;5014617;28;20029;-65
2021/11/13 10:11:15;;;;;;;25.27;16.63;;;;;;;;;;4986747;28;20071;-66
2021/11/13 10:13:52;;;;;;;23.58;16.45;;;;;;;;;;5014466;28;20097;-65
2021/11/13 10:16:27;;;;;;;24.90;15.55;;;;;;;;;;5014677;28;20076;-65
2021/11/13 10:18:59;;;;;;;24.75;16.17;;;;;;;;;;4996575;28;20049;-64
2021/11/13 10:21:34;;;;;;;25.73;15.68;;;;;;;;;;4996911;28;20137;-64
2021/11/13 10:24:27;;;;;;;23.77;15.73;;;;;;;;;;5014125;28;20044;-67
2021/11/13 10:27:06;;;;;;;24.58;16.08;;;;;;;;;;5014719;28;20370;-65
2021/11/13 10:29:47;;;;;;;24.58;16.20;;;;;;;;;;4996769;28;20021;-64
2021/11/13 10:32:18;;;;;;;23.88;15.23;;;;;;;;;;5014081;28;20100;-66
2021/11/13 10:34:52;;;;;;;22.75;13.98;;;;;;;;;;5013512;28;20058;-66
2021/11/13 10:37:34;;;;;;;24.25;15.27;;;;;;;;;;4996132;28;20588;-66
2021/11/13 10:40:02;;;;;;;25.17;15.30;;;;;;;;;;5014472;28;20026;-66
2021/11/13 10:42:31;;;;;;;25.90;16.70;;;;;;;;;;4997127;28;20113;-67
2021/11/13 10:45:00;;;;;;;27.33;16.92;;;;;;;;;;5014918;28;20026;-67
2021/11/13 10:47:46;;;;;;;29.23;17.85;;;;;;;;;;5014677;28;20022;-65
2021/11/13 10:50:30;;;;;;;26.73;16.65;;;;;;;;;;4997377;28;20053;-65
2021/11/13 10:53:22;;;;;;;24.80;17.02;;;;;;;;;;5013492;28;20033;-65
2021/11/13 10:56:19;;;;;;;25.42;16.80;;;;;;;;;;4994152;28;20026;-65
2021/11/13 10:59:15;;;;;;;23.88;15.57;;;;;;;;;;4996524;28;20489;-65
2021/11/13 11:01:51;;;;;;;24.23;14.98;;;;;;;;;;5012722;28;20025;-66
2021/11/13 11:04:45;;;;;;;29.25;16.60;;;;;;;;;;5013539;28;20094;-65
2021/11/13 11:07:24;;;;;;;24.27;15.20;;;;;;;;;;4995619;28;20041;-64
2021/11/13 11:10:15;;;;;;;24.48;12.43;;;;;;;;;;5013212;28;20033;-66
2021/11/13 11:12:41;;;;;;;23.02;13.18;;;;;;;;;;4994772;28;20022;-66
2021/11/13 11:15:08;;;;;;;26.58;14.63;;;;;;;;;;4646171;28;10000335;-66
2021/11/13 11:17:46;;;;;;;24.08;14.23;;;;;;;;;;4986654;28;20042;-67
2021/11/13 11:20:24;;;;;;;25.45;13.82;;;;;;;;;;4991150;28;20030;-66
2021/11/13 11:22:57;;;;;;;;;;;;;;;;;;4993025;28;20045;-64
2021/11/13 11:25:28;;;;;;;22.10;11.80;;;;;;;;;;4992163;28;19910;-67
2021/11/13 11:27:57;;;;;;;22.08;11.82;;;;;;;;;;4992775;28;20046;-67
2021/11/13 11:30:34;;;;;;;22.65;12.35;;;;;;;;;;4991561;28;20029;-66
2021/11/13 11:33:07;;;;;;;24.80;13.65;;;;;;;;;;4992099;28;20040;-68
2021/11/13 11:38:33;;;;;;;20.02;10.88;;;;;;;;;;5033488;23;20053;-64
2021/11/13 11:43:49;;;;;;;23.73;12.15;;;;;;;;;;5022269;28;20032;-63
2021/11/13 11:46:21;;;;;;;24.98;11.63;;;;;;;;;;5013530;28;20416;-67
2021/11/13 11:48:51;;;;;;;23.58;11.65;;;;;;;;;;5030541;28;20033;-68
2021/11/13 11:51:19;;;;;;;23.00;12.85;;;;;;;;;;5012517;28;20381;-67
2021/11/13 11:53:59;;;;;;;25.58;11.70;;;;;;;;;;5014779;28;20030;-68
2021/11/13 11:56:31;;;;;;;21.50;10.57;;;;;;;;;;5011237;28;20064;-67
2021/11/13 11:59:01;;;;;;;22.27;10.73;;;;;;;;;;5005231;28;20375;-67
2021/11/13 12:01:29;;;;;;;21.85;10.98;;;;;;;;;;5012226;28;20547;-64
2021/11/13 12:04:26;;;;;;;21.73;11.30;;;;;;;;;;5012077;28;20037;-67
2021/11/13 12:06:54;;;;;;;22.47;11.33;;;;;;;;;;5011720;28;20065;-65
2021/11/13 12:09:46;;;;;;;21.42;12.38;;;;;;;;;;5029723;28;20831;-67
2021/11/13 12:12:42;;;;;;;22.77;11.65;;;;;;;;;;4994791;28;20042;-67
2021/11/13 12:15:22;;;;;;;22.58;11.80;;;;;;;;;;4984653;28;20037;-68
2021/11/13 12:17:57;;;;;;;21.25;10.65;;;;;;;;;;5012474;28;20064;-67
2021/11/13 12:20:36;;;;;;;22.05;11.63;;;;;;;;;;5030032;28;20080;-66
2021/11/13 12:23:14;;;;;;;;;;;;;;;;;;;;;
2021/11/13 12:25:42;;;;;;;20.42;10.77;;;;;;;;;;5032151;28;20033;-66
2021/11/13 12:28:08;;;;;;;21.52;10.52;;;;;;;;;;5013570;28;20051;-66
2021/11/13 12:30:53;;;;;;;21.48;10.25;;;;;;;;;;4998149;28;20046;-67
2021/11/13 12:33:28;;;;;;;21.58;10.60;;;;;;;;;;5032069;28;20026;-67
2021/11/13 12:36:00;;;;;;;22.92;10.85;;;;;;;;;;5014017;28;20385;-66
2021/11/13 12:39:13;;;;;;;;;;;;;;;;;;;;;
2021/11/13 12:41:48;;;;;;;24.40;11.25;;;;;;;;;;4681229;28;10000205;-65
2021/11/13 12:44:20;;;;;;;22.08;9.82;;;;;;;;;;5011094;28;20375;-67
2021/11/13 12:46:47;;;;;;;22.27;9.90;;;;;;;;;;5010118;28;20063;-67
2021/11/13 12:49:22;;;;;;;23.05;11.60;;;;;;;;;;5010978;28;20048;-69
2021/11/13 12:52:06;;;;;;;20.90;10.75;;;;;;;;;;5028762;28;20516;-69
2021/11/13 12:55:22;;;;;;;25.42;11.05;;;;;;;;;;5011376;28;20493;-69
2021/11/13 12:57:39;;;;;;;23.08;11.43;;;;;;;;;;5013961;28;20102;-69
2021/11/13 13:00:05;;;;;;;21.95;11.13;;;;;;;;;;5011454;28;20030;-69
2021/11/13 13:05:50;;;;;;;22.77;11.07;;;;;;;;;;5011715;28;20131;-69
2021/11/13 13:08:28;;;;;;;22.23;11.65;;;;;;;;;;5010227;28;20107;-69
2021/11/13 13:13:50;;;;;;;23.15;11.98;;;;;;;;;;5020898;28;20088;-70
2021/11/13 13:16:19;;;;;;;24.27;12.88;;;;;;;;;;5010978;28;20132;-68
2021/11/13 13:18:57;;;;;;;23.38;12.68;;;;;;;;;;5010800;28;20064;-67
2021/11/13 13:21:29;;;;;;;26.75;13.95;;;;;;;;;;5011533;28;20045;-68
2021/11/13 13:27:23;;;;;;;22.52;12.23;;;;;;;;;;5030749;28;20156;-68
2021/11/13 13:32:31;;;;;;;22.08;12.25;;;;;;;;;;5759824;22;20051;-67
2021/11/13 13:34:59;;;;;;;21.70;12.02;;;;;;;;;;5071347;28;20158;-68
2021/11/13 13:37:28;;;;;;;23.55;14.60;;;;;;;;;;5068892;28;20032;-68
2021/11/13 13:39:56;;;;;;;23.00;14.23;;;;;;;;;;5070662;28;20021;-68
2021/11/13 13:42:31;;;;;;;26.46;13.86;;;;;;;;;;4906401;28;10000989;-68
2021/11/13 13:44:57;;;;;;;25.98;14.95;;;;;;;;;;5065308;23;20331;-67
2021/11/13 13:47:27;;;;;;;25.77;13.40;;;;;;;;;;5063305;28;20033;-67
2021/11/13 13:49:57;;;;;;;23.02;13.93;;;;;;;;;;5067513;28;20033;-66
2021/11/13 13:52:23;;;;;;;24.20;13.75;;;;;;;;;;5065275;28;20111;-66
2021/11/13 13:54:49;;;;;;;23.48;13.68;;;;;;;;;;5065183;28;20029;-66
2021/11/13 13:57:18;;;;;;;25.23;13.95;;;;;;;;;;5046598;28;20341;-67
2021/11/13 13:59:46;;;;;;;24.13;13.43;;;;;;;;;;5045080;28;20151;-67
2021/11/13 14:02:15;;;;;;;24.48;13.52;;;;;;;;;;5047144;28;20029;-67
2021/11/13 14:04:42;;;;;;;23.17;12.52;;;;;;;;;;5042990;28;20033;-67
2021/11/13 14:07:19;;;;;;;26.02;13.05;;;;;;;;;;5047643;28;20025;-66
2021/11/13 14:09:46;;;;;;;26.15;13.05;;;;;;;;;;5047624;28;20052;-67
2021/11/13 14:12:12;;;;;;;23.80;12.80;;;;;;;;;;5045562;28;20414;-68
2021/11/13 14:14:39;;;;;;;25.75;15.43;;;;;;;;;;5045841;28;20137;-65
2021/11/13 14:17:14;;;;;;;25.00;13.43;;;;;;;;;;5046005;28;20488;-65
2021/11/13 14:19:41;;;;;;;27.00;14.63;;;;;;;;;;5046069;28;20095;-64
2021/11/13 14:22:07;;;;;;;27.08;14.65;;;;;;;;;;5046422;28;20434;-65
2021/11/13 14:24:33;;;;;;;33.42;20.52;;;;;;;;;;5048651;28;20033;-65
2021/11/13 14:27:14;;;;;;;24.92;14.57;;;;;;;;;;5048047;28;20383;-65
2021/11/13 14:29:41;;;;;;;30.35;15.05;;;;;;;;;;5047797;28;20335;-64
2021/11/13 14:32:17;;;;;;;28.05;16.42;;;;;;;;;;5048266;28;20096;-65
2021/11/13 14:34:44;;;;;;;24.85;14.13;;;;;;;;;;5049852;28;20392;-65
2021/11/13 14:37:11;;;;;;;28.77;16.33;;;;;;;;;;5049922;28;20472;-65
2021/11/13 14:39:38;;;;;;;26.10;14.55;;;;;;;;;;5033751;28;20078;-66
2021/11/13 14:42:18;;;;;;;30.05;16.98;;;;;;;;;;5049339;28;20055;-65
2021/11/13 14:44:53;;;;;;;25.27;15.23;;;;;;;;;;5049513;28;20021;-65
2021/11/13 14:47:20;;;;;;;31.08;17.42;;;;;;;;;;5049425;28;20029;-65
2021/11/13 14:49:59;;;;;;;30.40;16.63;;;;;;;;;;5053484;28;20025;-65
2021/11/13 14:52:29;;;;;;;34.70;16.15;;;;;;;;;;5050506;28;20384;-65
2021/11/13 14:54:57;;;;;;;28.27;16.88;;;;;;;;;;5051723;28;20028;-65
2021/11/13 14:57:42;;;;;;;26.80;15.77;;;;;;;;;;5053207;28;20503;-65
2021/11/13 15:00:11;;;;;;;30.02;17.00;;;;;;;;;;5052774;28;20105;-64
2021/11/13 15:02:38;;;;;;;28.02;16.45;;;;;;;;;;5051602;28;20153;-65
2021/11/13 15:05:04;;;;;;;30.13;17.15;;;;;;;;;;5051808;28;20192;-65
2021/11/13 15:07:38;;;;;;;31.02;17.70;;;;;;;;;;5051252;28;20024;-63
2021/11/13 15:10:09;;;;;;;30.70;17.58;;;;;;;;;;5051569;28;20130;-65
2021/11/13 15:12:35;;;;;;;36.17;20.52;;;;;;;;;;5052508;28;20463;-65
2021/11/13 15:15:05;;;;;;;31.42;19.30;;;;;;;;;;5052332;28;20080;-66
2021/11/13 15:17:33;;;;;;;32.40;18.85;;;;;;;;;;5052153;28;20104;-64
2021/11/13 15:20:03;;;;;;;30.65;18.85;;;;;;;;;;5050548;28;20407;-64
2021/11/13 15:22:32;;;;;;;31.90;19.30;;;;;;;;;;5052425;28;20025;-65
2021/11/13 15:24:59;;;;;;;28.48;17.23;;;;;;;;;;5052021;28;20024;-64
2021/11/13 15:27:27;;;;;;;30.20;18.75;;;;;;;;;;5050907;28;20032;-65
2021/11/13 15:29:54;;;;;;;34.97;18.23;;;;;;;;;;5050917;28;20553;-65
2021/11/13 15:32:27;;;;;;;30.08;17.17;;;;;;;;;;5051971;28;20031;-65
2021/11/13 15:34:54;;;;;;;32.17;18.58;;;;;;;;;;5052654;28;20076;-63
2021/11/13 15:37:20;;;;;;;31.52;17.88;;;;;;;;;;5051081;28;20495;-64
2021/11/13 15:40:05;;;;;;;29.70;18.98;;;;;;;;;;5051961;28;20052;-65
2021/11/13 15:42:32;;;;;;;29.58;17.70;;;;;;;;;;5051938;28;20032;-64
2021/11/13 15:44:59;;;;;;;36.13;19.90;;;;;;;;;;5052076;28;20032;-64
2021/11/13 15:47:25;;;;;;;32.70;20.88;;;;;;;;;;5052443;28;20052;-65
2021/11/13 15:49:55;;;;;;;33.03;17.52;;;;;;;;;;5051240;28;20025;-65
2021/11/13 15:52:22;;;;;;;34.47;18.42;;;;;;;;;;5052367;28;20024;-65
2021/11/13 15:54:48;;;;;;;34.63;20.27;;;;;;;;;;5052122;28;20337;-65
2021/11/13 15:57:14;;;;;;;32.33;19.20;;;;;;;;;;5050691;28;20021;-65
2021/11/13 15:59:39;;;;;;;37.05;19.38;;;;;;;;;;5050129;28;20051;-64
2021/11/13 16:02:05;;;;;;;32.35;18.58;;;;;;;;;;5051822;28;20146;-65
2021/11/13 16:04:31;;;;;;;36.20;20.33;;;;;;;;;;5050709;28;20396;-65
2021/11/13 16:06:57;;;;;;;35.00;18.48;;;;;;;;;;5051421;28;20021;-65
2021/11/13 16:09:24;;;;;;;31.95;19.48;;;;;;;;;;5031981;28;20022;-64
2021/11/13 16:11:50;;;;;;;34.35;19.80;;;;;;;;;;5031728;28;20022;-66
2021/11/13 16:14:19;;;;;;;34.30;19.02;;;;;;;;;;5030691;28;20025;-68
2021/11/13 16:16:45;;;;;;;32.72;19.33;;;;;;;;;;4343567;28;10000753;-67
2021/11/13 16:19:11;;;;;;;36.25;19.27;;;;;;;;;;5049337;28;20060;-66
2021/11/13 16:21:37;;;;;;;39.22;20.70;;;;;;;;;;5047484;28;20086;-67
2021/11/13 16:24:03;;;;;;;36.58;20.40;;;;;;;;;;5047633;28;20071;-67
2021/11/13 16:26:29;;;;;;;38.47;20.92;;;;;;;;;;5047728;28;20032;-69
2021/11/13 16:28:56;;;;;;;40.30;19.45;;;;;;;;;;5047858;28;20036;-67
2021/11/13 16:31:22;;;;;;;41.35;20.95;;;;;;;;;;5049124;28;20089;-67
2021/11/13 16:33:48;;;;;;;38.60;20.65;;;;;;;;;;5049135;28;20037;-67
2021/11/13 16:36:14;;;;;;;41.72;22.95;;;;;;;;;;5048513;28;20108;-68